DIRECCIÓN GENERAL DE AERONÁUTICA CIVIL
DIRECCIÓN METEOROLÓGICA DE CHILE
INFORMACIÓN METAR Y TAF

FIR SANTIAGO

Estación: SCSE
METAR SCSE 310300Z 28004KT CAVOK 15/13 Q1012=

TAF SCSE 302220Z 3100/3124 29005KT 9999 SCT018 TX20/3119Z TN15/3110Z BECMG 3104/3106 VRB02KT BKN015 TEMPO 3108/3112 11004KT OVC010 BECMG 3114/3116 29005KT BKN013 BECMG 3118/3120 30011KT SCT020=

Estación: SCER
NIL=

NIL=

Estación: SCRD
METAR SCRD 310000Z VRB02KT CAVOK 15/11 Q1013=

TAF SCRD 301620Z 3018/3106 30010KT CAVOK TX21/3018Z TN13/3106Z TEMPO 3020/3024 20010KT=

Estación: SCVM
METAR SCVM 310300Z 00000KT CAVOK 14/12 Q1013=

TAF SCVM 302220Z 3100/3124 33005KT CAVOK TX20/3119Z TN13/3110Z BECMG 3104/3106 VRB02KT SCT012 BECMG 3108/3110 6000 BKN010 BECMG 3115/3117 31008KT SCT017 BECMG 3119/3121 CAVOK=

Estación: SCTB
METAR SCTB 310000Z 24004KT CAVOK 23/13 Q1013=

TAF SCTB 301620Z 3018/3106 23010KT CAVOK TX32/3018Z TN14/3106Z=

Estación: SCEL
METAR SCEL 310400Z 16009KT CAVOK 19/09 Q1013 NOSIG=

TAF SCEL 302220Z 3100/3124 16008KT CAVOK TX32/3119Z TN15/3110Z TEMPO 3108/3112 VRB02KT 7000 BECMG 3116/3118 18010KT BECMG 3119/3121 22016KT=

Estación: SCSN
METAR SCSN 310300Z AUTO 05007KT CAVOK 14/12 Q1013=

TAF SCSN 301620Z 3018/3106 29010KT 9999 SCT015 TX19/3018Z TN14/3106Z TEMPO 3019/3023 24010KT CAVOK=

Estación: SCRG
METAR SCRG 301800Z 16013KT CAVOK 29/13 Q1013=

TAF SCRG 301050Z 3012/3024 16005KT CAVOK TX31/3018Z TN14/3012Z BECMG 3016/3018 19015KT=

Estación: SCIC
METAR SCIC 310300Z AUTO 25005KT 9999 VV002 19/09 Q1011=

TAF SCIC 301620Z 3018/3106 23010KT CAVOK TX30/3018Z TN15/3106Z=

Estación: SCCH
METAR SCCH 310000Z 23005KT CAVOK 26/07 Q1012=

TAF SCCH 301620Z 3018/3106 21010KT CAVOK TX30/3018Z TN13/3106Z=

Estación: SCIE
METAR SCIE 310300Z 22009KT CAVOK 15/11 Q1013=

TAF SCIE 302220Z 3100/3124 22005KT CAVOK TX22/3118Z TN12/3110Z TEMPO 3108/3112 17005KT BECMG 3114/3116 21010KT BECMG 3118/3120 25013KT=

Estación: SCGE
METAR SCGE 302100Z 18009KT CAVOK 33/08 Q1012=

TAF SCGE 301620Z 3018/3106 19012KT CAVOK TX29/3018Z TN13/3106Z=


Volver